sensor_id;sensor_type;location;lat;lon;timestamp;P1;durP1;ratioP1;P2;durP2;ratioP2
55575;SDS011;41437;45.478;9.116;2023-02-15T00:00:43;85.38;;;38.70;;
55575;SDS011;41437;45.478;9.116;2023-02-15T00:03:44;80.75;;;40.03;;
55575;SDS011;41437;45.478;9.116;2023-02-15T00:06:49;90.32;;;42.60;;
55575;SDS011;41437;45.478;9.116;2023-02-15T00:09:50;90.38;;;43.38;;
55575;SDS011;41437;45.478;9.116;2023-02-15T00:12:52;81.78;;;40.67;;
55575;SDS011;41437;45.478;9.116;2023-02-15T00:16:01;82.63;;;39.35;;
55575;SDS011;41437;45.478;9.116;2023-02-15T00:19:03;83.70;;;39.38;;
55575;SDS011;41437;45.478;9.116;2023-02-15T00:22:06;84.43;;;40.38;;
55575;SDS011;41437;45.478;9.116;2023-02-15T00:25:07;79.72;;;38.70;;
55575;SDS011;41437;45.478;9.116;2023-02-15T00:28:09;79.35;;;40.05;;
55575;SDS011;41437;45.478;9.116;2023-02-15T00:31:12;85.18;;;42.22;;
55575;SDS011;41437;45.478;9.116;2023-02-15T00:34:14;88.05;;;41.75;;
55575;SDS011;41437;45.478;9.116;2023-02-15T00:37:18;88.57;;;39.45;;
55575;SDS011;41437;45.478;9.116;2023-02-15T00:40:19;82.35;;;41.17;;
55575;SDS011;41437;45.478;9.116;2023-02-15T00:43:21;80.47;;;40.75;;
55575;SDS011;41437;45.478;9.116;2023-02-15T00:46:25;82.35;;;38.55;;
55575;SDS011;41437;45.478;9.116;2023-02-15T00:49:26;77.18;;;40.10;;
55575;SDS011;41437;45.478;9.116;2023-02-15T00:52:28;78.38;;;39.53;;
55575;SDS011;41437;45.478;9.116;2023-02-15T00:55:30;76.85;;;39.10;;
55575;SDS011;41437;45.478;9.116;2023-02-15T00:58:31;77.43;;;38.75;;
55575;SDS011;41437;45.478;9.116;2023-02-15T01:01:34;82.20;;;39.40;;
55575;SDS011;41437;45.478;9.116;2023-02-15T01:04:36;76.93;;;38.37;;
55575;SDS011;41437;45.478;9.116;2023-02-15T01:07:38;81.40;;;40.38;;
55575;SDS011;41437;45.478;9.116;2023-02-15T01:10:39;71.50;;;39.15;;
55575;SDS011;41437;45.478;9.116;2023-02-15T01:13:41;86.72;;;42.85;;
55575;SDS011;41437;45.478;9.116;2023-02-15T01:16:44;83.57;;;41.83;;
55575;SDS011;41437;45.478;9.116;2023-02-15T01:19:46;81.27;;;41.00;;
55575;SDS011;41437;45.478;9.116;2023-02-15T01:22:47;83.20;;;41.97;;
55575;SDS011;41437;45.478;9.116;2023-02-15T01:25:50;87.30;;;41.38;;
55575;SDS011;41437;45.478;9.116;2023-02-15T01:28:51;83.15;;;42.28;;
55575;SDS011;41437;45.478;9.116;2023-02-15T01:31:54;79.07;;;41.40;;
55575;SDS011;41437;45.478;9.116;2023-02-15T01:34:56;74.10;;;39.08;;
55575;SDS011;41437;45.478;9.116;2023-02-15T01:37:57;83.60;;;41.85;;
55575;SDS011;41437;45.478;9.116;2023-02-15T01:40:59;82.60;;;40.25;;
55575;SDS011;41437;45.478;9.116;2023-02-15T01:47:53;77.45;;;40.88;;
55575;SDS011;41437;45.478;9.116;2023-02-15T01:51:00;87.13;;;42.90;;
55575;SDS011;41437;45.478;9.116;2023-02-15T01:54:05;86.07;;;42.10;;
55575;SDS011;41437;45.478;9.116;2023-02-15T01:57:13;85.18;;;42.88;;
55575;SDS011;41437;45.478;9.116;2023-02-15T02:00:18;81.55;;;43.60;;
55575;SDS011;41437;45.478;9.116;2023-02-15T02:03:24;80.32;;;43.50;;
55575;SDS011;41437;45.478;9.116;2023-02-15T02:06:32;83.88;;;42.38;;
55575;SDS011;41437;45.478;9.116;2023-02-15T02:09:35;81.05;;;42.65;;
55575;SDS011;41437;45.478;9.116;2023-02-15T02:12:37;83.97;;;43.08;;
55575;SDS011;41437;45.478;9.116;2023-02-15T02:15:44;80.88;;;41.38;;
55575;SDS011;41437;45.478;9.116;2023-02-15T02:19:15;89.88;;;43.95;;
55575;SDS011;41437;45.478;9.116;2023-02-15T02:30:20;92.15;;;43.55;;
55575;SDS011;41437;45.478;9.116;2023-02-15T02:37:03;81.25;;;42.15;;
55575;SDS011;41437;45.478;9.116;2023-02-15T02:40:16;81.73;;;42.47;;
55575;SDS011;41437;45.478;9.116;2023-02-15T02:43:28;86.05;;;42.80;;
55575;SDS011;41437;45.478;9.116;2023-02-15T02:46:35;78.07;;;40.70;;
55575;SDS011;41437;45.478;9.116;2023-02-15T02:49:42;80.15;;;40.50;;
55575;SDS011;41437;45.478;9.116;2023-02-15T02:55:47;77.43;;;41.45;;
55575;SDS011;41437;45.478;9.116;2023-02-15T02:58:54;78.90;;;39.95;;
55575;SDS011;41437;45.478;9.116;2023-02-15T03:02:00;72.80;;;39.88;;
55575;SDS011;41437;45.478;9.116;2023-02-15T03:05:11;75.25;;;41.40;;
55575;SDS011;41437;45.478;9.116;2023-02-15T03:08:17;76.95;;;41.20;;
55575;SDS011;41437;45.478;9.116;2023-02-15T03:11:22;71.72;;;39.65;;
55575;SDS011;41437;45.478;9.116;2023-02-15T03:14:24;73.10;;;40.15;;
55575;SDS011;41437;45.478;9.116;2023-02-15T03:17:26;80.10;;;41.65;;
55575;SDS011;41437;45.478;9.116;2023-02-15T03:20:32;82.28;;;40.58;;
55575;SDS011;41437;45.478;9.116;2023-02-15T03:23:37;79.20;;;41.50;;
55575;SDS011;41437;45.478;9.116;2023-02-15T03:26:41;77.07;;;41.27;;
55575;SDS011;41437;45.478;9.116;2023-02-15T03:29:47;82.60;;;41.00;;
55575;SDS011;41437;45.478;9.116;2023-02-15T03:32:52;77.20;;;42.13;;
55575;SDS011;41437;45.478;9.116;2023-02-15T03:35:57;74.03;;;41.70;;
55575;SDS011;41437;45.478;9.116;2023-02-15T03:39:04;83.93;;;42.55;;
55575;SDS011;41437;45.478;9.116;2023-02-15T03:42:13;87.63;;;41.78;;
55575;SDS011;41437;45.478;9.116;2023-02-15T03:45:22;79.32;;;41.10;;
55575;SDS011;41437;45.478;9.116;2023-02-15T03:48:28;80.72;;;41.97;;
55575;SDS011;41437;45.478;9.116;2023-02-15T03:51:35;81.47;;;41.53;;
55575;SDS011;41437;45.478;9.116;2023-02-15T03:54:40;81.68;;;41.20;;
55575;SDS011;41437;45.478;9.116;2023-02-15T03:57:46;82.70;;;41.70;;
55575;SDS011;41437;45.478;9.116;2023-02-15T04:01:17;82.85;;;43.13;;
55575;SDS011;41437;45.478;9.116;2023-02-15T04:04:45;78.57;;;41.42;;
55575;SDS011;41437;45.478;9.116;2023-02-15T04:10:51;83.30;;;41.05;;
55575;SDS011;41437;45.478;9.116;2023-02-15T04:13:56;80.43;;;41.45;;
55575;SDS011;41437;45.478;9.116;2023-02-15T04:16:58;78.68;;;40.17;;
55575;SDS011;41437;45.478;9.116;2023-02-15T04:19:59;73.82;;;39.10;;
55575;SDS011;41437;45.478;9.116;2023-02-15T04:23:22;74.00;;;39.38;;
55575;SDS011;41437;45.478;9.116;2023-02-15T04:26:41;71.78;;;37.55;;
55575;SDS011;41437;45.478;9.116;2023-02-15T04:29:43;64.55;;;35.42;;
55575;SDS011;41437;45.478;9.116;2023-02-15T04:32:45;68.13;;;37.20;;
55575;SDS011;41437;45.478;9.116;2023-02-15T04:35:46;71.68;;;37.53;;
55575;SDS011;41437;45.478;9.116;2023-02-15T04:38:49;69.78;;;37.05;;
55575;SDS011;41437;45.478;9.116;2023-02-15T04:41:51;62.28;;;35.10;;
55575;SDS011;41437;45.478;9.116;2023-02-15T04:44:53;69.70;;;36.60;;
55575;SDS011;41437;45.478;9.116;2023-02-15T04:47:55;69.47;;;36.45;;
55575;SDS011;41437;45.478;9.116;2023-02-15T04:50:57;73.50;;;38.35;;
55575;SDS011;41437;45.478;9.116;2023-02-15T04:54:00;75.15;;;37.35;;
55575;SDS011;41437;45.478;9.116;2023-02-15T04:57:01;71.27;;;38.30;;
55575;SDS011;41437;45.478;9.116;2023-02-15T05:00:03;77.28;;;37.80;;
55575;SDS011;41437;45.478;9.116;2023-02-15T05:03:06;77.03;;;37.45;;
55575;SDS011;41437;45.478;9.116;2023-02-15T05:06:08;76.88;;;39.25;;
55575;SDS011;41437;45.478;9.116;2023-02-15T05:09:11;74.88;;;38.28;;
55575;SDS011;41437;45.478;9.116;2023-02-15T05:12:14;76.18;;;39.63;;
55575;SDS011;41437;45.478;9.116;2023-02-15T05:15:15;75.93;;;38.92;;
55575;SDS011;41437;45.478;9.116;2023-02-15T05:18:17;77.57;;;38.30;;
55575;SDS011;41437;45.478;9.116;2023-02-15T05:21:20;73.88;;;37.20;;
55575;SDS011;41437;45.478;9.116;2023-02-15T05:24:25;70.68;;;36.42;;
55575;SDS011;41437;45.478;9.116;2023-02-15T05:27:44;70.28;;;36.33;;
55575;SDS011;41437;45.478;9.116;2023-02-15T05:31:04;69.75;;;36.50;;
55575;SDS011;41437;45.478;9.116;2023-02-15T05:34:06;72.77;;;37.40;;
55575;SDS011;41437;45.478;9.116;2023-02-15T05:37:08;71.13;;;36.45;;
55575;SDS011;41437;45.478;9.116;2023-02-15T05:40:11;71.07;;;34.70;;
55575;SDS011;41437;45.478;9.116;2023-02-15T05:43:13;67.38;;;34.80;;
55575;SDS011;41437;45.478;9.116;2023-02-15T05:46:14;63.28;;;34.05;;
55575;SDS011;41437;45.478;9.116;2023-02-15T05:49:16;61.10;;;32.55;;
55575;SDS011;41437;45.478;9.116;2023-02-15T05:52:18;66.30;;;33.28;;
55575;SDS011;41437;45.478;9.116;2023-02-15T05:55:21;61.65;;;32.80;;
55575;SDS011;41437;45.478;9.116;2023-02-15T05:58:23;63.03;;;32.75;;
55575;SDS011;41437;45.478;9.116;2023-02-15T06:01:25;60.75;;;31.50;;
55575;SDS011;41437;45.478;9.116;2023-02-15T06:04:27;63.60;;;31.88;;
55575;SDS011;41437;45.478;9.116;2023-02-15T06:07:28;56.85;;;30.40;;
55575;SDS011;41437;45.478;9.116;2023-02-15T06:10:34;63.55;;;31.10;;
55575;SDS011;41437;45.478;9.116;2023-02-15T06:13:35;61.90;;;33.00;;
55575;SDS011;41437;45.478;9.116;2023-02-15T06:16:37;59.00;;;31.60;;
55575;SDS011;41437;45.478;9.116;2023-02-15T06:19:39;60.88;;;31.08;;
55575;SDS011;41437;45.478;9.116;2023-02-15T06:22:40;62.75;;;32.55;;
55575;SDS011;41437;45.478;9.116;2023-02-15T06:25:46;59.85;;;32.13;;
55575;SDS011;41437;45.478;9.116;2023-02-15T06:28:48;62.53;;;31.48;;
55575;SDS011;41437;45.478;9.116;2023-02-15T06:31:50;69.28;;;32.90;;
55575;SDS011;41437;45.478;9.116;2023-02-15T06:34:52;62.15;;;32.00;;
55575;SDS011;41437;45.478;9.116;2023-02-15T06:37:54;60.92;;;31.25;;
55575;SDS011;41437;45.478;9.116;2023-02-15T06:40:57;58.53;;;29.90;;
55575;SDS011;41437;45.478;9.116;2023-02-15T06:43:59;58.00;;;29.55;;
55575;SDS011;41437;45.478;9.116;2023-02-15T06:47:00;55.55;;;29.60;;
55575;SDS011;41437;45.478;9.116;2023-02-15T06:50:02;59.53;;;29.45;;
55575;SDS011;41437;45.478;9.116;2023-02-15T06:53:05;52.05;;;29.73;;
55575;SDS011;41437;45.478;9.116;2023-02-15T06:56:08;61.08;;;30.98;;
55575;SDS011;41437;45.478;9.116;2023-02-15T06:59:11;55.70;;;29.98;;
55575;SDS011;41437;45.478;9.116;2023-02-15T07:02:13;64.43;;;30.80;;
55575;SDS011;41437;45.478;9.116;2023-02-15T07:05:15;56.60;;;29.30;;
55575;SDS011;41437;45.478;9.116;2023-02-15T07:08:16;54.00;;;28.95;;
55575;SDS011;41437;45.478;9.116;2023-02-15T07:11:32;53.42;;;28.60;;
55575;SDS011;41437;45.478;9.116;2023-02-15T07:14:52;54.80;;;28.33;;
55575;SDS011;41437;45.478;9.116;2023-02-15T07:26:51;59.00;;;31.17;;
55575;SDS011;41437;45.478;9.116;2023-02-15T07:29:53;56.78;;;31.33;;
55575;SDS011;41437;45.478;9.116;2023-02-15T07:32:54;54.40;;;30.42;;
55575;SDS011;41437;45.478;9.116;2023-02-15T07:36:14;57.45;;;30.90;;
55575;SDS011;41437;45.478;9.116;2023-02-15T07:39:15;53.75;;;29.45;;
55575;SDS011;41437;45.478;9.116;2023-02-15T07:42:18;55.00;;;30.13;;
55575;SDS011;41437;45.478;9.116;2023-02-15T07:45:21;57.40;;;29.58;;
55575;SDS011;41437;45.478;9.116;2023-02-15T07:48:23;51.80;;;30.20;;
55575;SDS011;41437;45.478;9.116;2023-02-15T07:51:24;58.42;;;30.13;;
55575;SDS011;41437;45.478;9.116;2023-02-15T07:54:26;58.22;;;30.95;;
55575;SDS011;41437;45.478;9.116;2023-02-15T07:57:30;55.03;;;30.77;;
55575;SDS011;41437;45.478;9.116;2023-02-15T08:00:32;56.73;;;29.43;;
55575;SDS011;41437;45.478;9.116;2023-02-15T08:03:58;53.22;;;30.00;;
55575;SDS011;41437;45.478;9.116;2023-02-15T08:07:00;56.00;;;30.27;;
55575;SDS011;41437;45.478;9.116;2023-02-15T08:13:07;52.33;;;28.63;;
55575;SDS011;41437;45.478;9.116;2023-02-15T08:16:08;50.70;;;30.58;;
55575;SDS011;41437;45.478;9.116;2023-02-15T08:19:11;53.55;;;30.25;;
55575;SDS011;41437;45.478;9.116;2023-02-15T08:22:14;53.30;;;30.63;;
55575;SDS011;41437;45.478;9.116;2023-02-15T08:25:16;56.47;;;30.38;;
55575;SDS011;41437;45.478;9.116;2023-02-15T08:28:19;58.13;;;30.08;;
55575;SDS011;41437;45.478;9.116;2023-02-15T08:31:20;51.45;;;29.08;;
55575;SDS011;41437;45.478;9.116;2023-02-15T08:34:22;55.63;;;29.90;;
55575;SDS011;41437;45.478;9.116;2023-02-15T08:37:23;52.65;;;31.00;;
55575;SDS011;41437;45.478;9.116;2023-02-15T08:40:26;54.78;;;30.80;;
55575;SDS011;41437;45.478;9.116;2023-02-15T08:43:28;53.78;;;30.17;;
55575;SDS011;41437;45.478;9.116;2023-02-15T08:46:31;57.40;;;31.20;;
55575;SDS011;41437;45.478;9.116;2023-02-15T08:49:34;60.20;;;33.10;;
55575;SDS011;41437;45.478;9.116;2023-02-15T08:52:35;60.17;;;32.78;;
55575;SDS011;41437;45.478;9.116;2023-02-15T08:55:38;58.20;;;32.15;;
55575;SDS011;41437;45.478;9.116;2023-02-15T08:58:42;59.42;;;33.30;;
55575;SDS011;41437;45.478;9.116;2023-02-15T09:01:43;63.40;;;33.53;;
55575;SDS011;41437;45.478;9.116;2023-02-15T09:04:48;65.55;;;35.92;;
55575;SDS011;41437;45.478;9.116;2023-02-15T09:07:49;58.67;;;32.80;;
55575;SDS011;41437;45.478;9.116;2023-02-15T09:10:51;62.80;;;35.35;;
55575;SDS011;41437;45.478;9.116;2023-02-15T09:13:55;60.67;;;35.85;;
55575;SDS011;41437;45.478;9.116;2023-02-15T09:16:58;59.03;;;37.03;;
55575;SDS011;41437;45.478;9.116;2023-02-15T09:23:19;61.67;;;37.00;;
55575;SDS011;41437;45.478;9.116;2023-02-15T09:26:22;65.57;;;36.45;;
55575;SDS011;41437;45.478;9.116;2023-02-15T09:29:26;69.47;;;36.47;;
55575;SDS011;41437;45.478;9.116;2023-02-15T09:32:27;67.43;;;37.33;;
55575;SDS011;41437;45.478;9.116;2023-02-15T09:35:29;65.30;;;37.60;;
55575;SDS011;41437;45.478;9.116;2023-02-15T09:38:30;65.03;;;38.58;;
55575;SDS011;41437;45.478;9.116;2023-02-15T09:41:40;67.05;;;38.75;;
55575;SDS011;41437;45.478;9.116;2023-02-15T09:45:16;77.00;;;41.33;;
55575;SDS011;41437;45.478;9.116;2023-02-15T09:48:34;73.93;;;40.00;;
55575;SDS011;41437;45.478;9.116;2023-02-15T09:51:45;70.75;;;40.72;;
55575;SDS011;41437;45.478;9.116;2023-02-15T09:55:06;77.20;;;41.03;;
55575;SDS011;41437;45.478;9.116;2023-02-15T09:58:21;79.93;;;42.03;;
55575;SDS011;41437;45.478;9.116;2023-02-15T10:01:32;71.53;;;39.97;;
55575;SDS011;41437;45.478;9.116;2023-02-15T10:04:48;73.57;;;41.80;;
55575;SDS011;41437;45.478;9.116;2023-02-15T10:11:31;78.20;;;43.25;;
55575;SDS011;41437;45.478;9.116;2023-02-15T10:14:49;76.60;;;41.85;;
55575;SDS011;41437;45.478;9.116;2023-02-15T10:18:15;78.53;;;41.85;;
55575;SDS011;41437;45.478;9.116;2023-02-15T10:21:31;77.28;;;43.70;;
55575;SDS011;41437;45.478;9.116;2023-02-15T10:24:48;77.80;;;42.10;;
55575;SDS011;41437;45.478;9.116;2023-02-15T10:28:14;76.30;;;41.03;;
55575;SDS011;41437;45.478;9.116;2023-02-15T10:31:22;76.32;;;43.47;;
55575;SDS011;41437;45.478;9.116;2023-02-15T10:34:28;69.45;;;41.05;;
55575;SDS011;41437;45.478;9.116;2023-02-15T10:37:44;76.72;;;44.03;;
55575;SDS011;41437;45.478;9.116;2023-02-15T10:41:00;72.82;;;42.95;;
55575;SDS011;41437;45.478;9.116;2023-02-15T10:44:15;75.95;;;42.53;;
55575;SDS011;41437;45.478;9.116;2023-02-15T10:47:31;77.75;;;43.60;;
55575;SDS011;41437;45.478;9.116;2023-02-15T10:50:48;77.50;;;44.03;;
55575;SDS011;41437;45.478;9.116;2023-02-15T10:53:56;74.05;;;42.97;;
55575;SDS011;41437;45.478;9.116;2023-02-15T10:57:12;77.13;;;42.63;;
55575;SDS011;41437;45.478;9.116;2023-02-15T11:00:23;72.28;;;40.13;;
55575;SDS011;41437;45.478;9.116;2023-02-15T11:03:40;77.15;;;41.75;;
55575;SDS011;41437;45.478;9.116;2023-02-15T11:06:56;85.90;;;45.28;;
55575;SDS011;41437;45.478;9.116;2023-02-15T11:10:01;82.30;;;44.75;;
55575;SDS011;41437;45.478;9.116;2023-02-15T11:13:15;84.05;;;46.15;;
55575;SDS011;41437;45.478;9.116;2023-02-15T11:16:20;82.10;;;48.40;;
55575;SDS011;41437;45.478;9.116;2023-02-15T11:19:26;81.82;;;45.45;;
55575;SDS011;41437;45.478;9.116;2023-02-15T11:22:34;86.15;;;46.05;;
55575;SDS011;41437;45.478;9.116;2023-02-15T11:25:39;77.75;;;44.90;;
55575;SDS011;41437;45.478;9.116;2023-02-15T11:28:42;85.90;;;47.50;;
55575;SDS011;41437;45.478;9.116;2023-02-15T11:31:49;87.10;;;47.55;;
55575;SDS011;41437;45.478;9.116;2023-02-15T11:34:55;84.82;;;46.58;;
55575;SDS011;41437;45.478;9.116;2023-02-15T11:38:02;89.82;;;49.90;;
55575;SDS011;41437;45.478;9.116;2023-02-15T11:41:11;86.63;;;50.97;;
55575;SDS011;41437;45.478;9.116;2023-02-15T11:44:19;87.10;;;50.33;;
55575;SDS011;41437;45.478;9.116;2023-02-15T11:47:24;88.18;;;51.53;;
55575;SDS011;41437;45.478;9.116;2023-02-15T11:50:26;102.72;;;53.47;;
55575;SDS011;41437;45.478;9.116;2023-02-15T11:56:34;91.57;;;49.72;;
55575;SDS011;41437;45.478;9.116;2023-02-15T11:59:39;91.13;;;51.08;;
55575;SDS011;41437;45.478;9.116;2023-02-15T12:02:44;95.25;;;51.60;;
55575;SDS011;41437;45.478;9.116;2023-02-15T12:05:52;89.60;;;51.20;;
55575;SDS011;41437;45.478;9.116;2023-02-15T12:09:02;88.35;;;50.47;;
55575;SDS011;41437;45.478;9.116;2023-02-15T12:12:21;89.82;;;49.28;;
55575;SDS011;41437;45.478;9.116;2023-02-15T12:15:29;87.70;;;48.03;;
55575;SDS011;41437;45.478;9.116;2023-02-15T12:18:34;90.38;;;49.35;;
55575;SDS011;41437;45.478;9.116;2023-02-15T12:21:40;87.40;;;49.67;;
55575;SDS011;41437;45.478;9.116;2023-02-15T12:24:45;89.10;;;49.15;;
55575;SDS011;41437;45.478;9.116;2023-02-15T12:27:48;94.78;;;48.75;;
55575;SDS011;41437;45.478;9.116;2023-02-15T12:30:52;88.38;;;48.53;;
55575;SDS011;41437;45.478;9.116;2023-02-15T12:33:57;88.63;;;49.15;;
55575;SDS011;41437;45.478;9.116;2023-02-15T12:37:07;89.03;;;48.42;;
55575;SDS011;41437;45.478;9.116;2023-02-15T12:40:22;88.70;;;47.78;;
55575;SDS011;41437;45.478;9.116;2023-02-15T12:43:26;89.03;;;47.40;;
55575;SDS011;41437;45.478;9.116;2023-02-15T12:46:33;89.25;;;49.25;;
55575;SDS011;41437;45.478;9.116;2023-02-15T12:49:37;84.55;;;45.03;;
55575;SDS011;41437;45.478;9.116;2023-02-15T12:52:39;81.07;;;43.55;;
55575;SDS011;41437;45.478;9.116;2023-02-15T12:55:51;83.35;;;45.38;;
55575;SDS011;41437;45.478;9.116;2023-02-15T12:59:03;85.30;;;46.95;;
55575;SDS011;41437;45.478;9.116;2023-02-15T13:02:09;87.50;;;49.92;;
55575;SDS011;41437;45.478;9.116;2023-02-15T13:05:25;86.55;;;48.88;;
55575;SDS011;41437;45.478;9.116;2023-02-15T13:08:35;83.90;;;48.13;;
55575;SDS011;41437;45.478;9.116;2023-02-15T13:11:47;86.75;;;46.80;;
55575;SDS011;41437;45.478;9.116;2023-02-15T13:17:52;77.07;;;42.17;;
55575;SDS011;41437;45.478;9.116;2023-02-15T13:20:56;83.28;;;43.38;;
55575;SDS011;41437;45.478;9.116;2023-02-15T13:24:00;80.95;;;42.38;;
55575;SDS011;41437;45.478;9.116;2023-02-15T13:27:09;80.00;;;42.65;;
55575;SDS011;41437;45.478;9.116;2023-02-15T13:30:22;77.78;;;41.80;;
55575;SDS011;41437;45.478;9.116;2023-02-15T13:33:30;80.93;;;43.28;;
55575;SDS011;41437;45.478;9.116;2023-02-15T13:36:36;87.25;;;43.83;;
55575;SDS011;41437;45.478;9.116;2023-02-15T13:39:46;83.25;;;44.80;;
55575;SDS011;41437;45.478;9.116;2023-02-15T13:42:54;83.13;;;42.67;;
55575;SDS011;41437;45.478;9.116;2023-02-15T13:46:06;89.13;;;43.75;;
55575;SDS011;41437;45.478;9.116;2023-02-15T13:49:17;78.85;;;42.40;;
55575;SDS011;41437;45.478;9.116;2023-02-15T13:52:33;80.68;;;41.28;;
55575;SDS011;41437;45.478;9.116;2023-02-15T13:55:44;84.57;;;41.78;;
55575;SDS011;41437;45.478;9.116;2023-02-15T14:02:37;91.43;;;42.78;;
55575;SDS011;41437;45.478;9.116;2023-02-15T14:05:57;82.60;;;40.53;;
55575;SDS011;41437;45.478;9.116;2023-02-15T14:09:16;86.65;;;41.25;;
55575;SDS011;41437;45.478;9.116;2023-02-15T14:12:31;87.65;;;42.45;;
55575;SDS011;41437;45.478;9.116;2023-02-15T14:15:44;91.68;;;42.03;;
55575;SDS011;41437;45.478;9.116;2023-02-15T14:18:51;87.72;;;42.10;;
55575;SDS011;41437;45.478;9.116;2023-02-15T14:22:01;91.70;;;42.80;;
55575;SDS011;41437;45.478;9.116;2023-02-15T14:25:15;86.43;;;42.97;;
55575;SDS011;41437;45.478;9.116;2023-02-15T14:28:22;88.85;;;44.00;;
55575;SDS011;41437;45.478;9.116;2023-02-15T14:31:33;87.28;;;42.17;;
55575;SDS011;41437;45.478;9.116;2023-02-15T14:34:42;85.40;;;43.42;;
55575;SDS011;41437;45.478;9.116;2023-02-15T14:37:49;85.97;;;43.33;;
55575;SDS011;41437;45.478;9.116;2023-02-15T14:40:57;84.22;;;42.38;;
55575;SDS011;41437;45.478;9.116;2023-02-15T14:44:06;80.00;;;39.60;;
55575;SDS011;41437;45.478;9.116;2023-02-15T14:47:16;79.90;;;37.75;;
55575;SDS011;41437;45.478;9.116;2023-02-15T14:50:35;75.95;;;35.70;;
55575;SDS011;41437;45.478;9.116;2023-02-15T14:53:39;73.82;;;35.05;;
55575;SDS011;41437;45.478;9.116;2023-02-15T14:56:43;81.80;;;37.40;;
55575;SDS011;41437;45.478;9.116;2023-02-15T14:59:45;75.95;;;36.75;;
55575;SDS011;41437;45.478;9.116;2023-02-15T15:02:57;75.35;;;35.30;;
55575;SDS011;41437;45.478;9.116;2023-02-15T15:05:59;76.97;;;34.83;;
55575;SDS011;41437;45.478;9.116;2023-02-15T15:09:09;68.82;;;32.97;;
55575;SDS011;41437;45.478;9.116;2023-02-15T15:12:14;72.13;;;33.28;;
55575;SDS011;41437;45.478;9.116;2023-02-15T15:15:33;73.80;;;33.78;;
55575;SDS011;41437;45.478;9.116;2023-02-15T15:18:45;69.18;;;33.83;;
55575;SDS011;41437;45.478;9.116;2023-02-15T15:21:54;71.03;;;32.03;;
55575;SDS011;41437;45.478;9.116;2023-02-15T15:24:56;64.43;;;30.50;;
55575;SDS011;41437;45.478;9.116;2023-02-15T15:27:58;61.47;;;30.02;;
55575;SDS011;41437;45.478;9.116;2023-02-15T15:31:02;64.38;;;30.42;;
55575;SDS011;41437;45.478;9.116;2023-02-15T15:34:28;57.78;;;29.63;;
55575;SDS011;41437;45.478;9.116;2023-02-15T15:37:46;63.00;;;28.65;;
55575;SDS011;41437;45.478;9.116;2023-02-15T15:41:16;61.20;;;27.60;;
55575;SDS011;41437;45.478;9.116;2023-02-15T15:44:32;63.70;;;30.65;;
55575;SDS011;41437;45.478;9.116;2023-02-15T15:48:01;69.75;;;32.60;;
55575;SDS011;41437;45.478;9.116;2023-02-15T15:51:20;71.70;;;33.65;;
55575;SDS011;41437;45.478;9.116;2023-02-15T15:54:29;71.78;;;34.95;;
55575;SDS011;41437;45.478;9.116;2023-02-15T15:57:32;79.18;;;35.55;;
55575;SDS011;41437;45.478;9.116;2023-02-15T16:00:41;75.28;;;35.25;;
55575;SDS011;41437;45.478;9.116;2023-02-15T16:03:49;73.97;;;34.95;;
55575;SDS011;41437;45.478;9.116;2023-02-15T16:06:55;73.45;;;35.13;;
55575;SDS011;41437;45.478;9.116;2023-02-15T16:09:58;80.03;;;35.53;;
55575;SDS011;41437;45.478;9.116;2023-02-15T16:13:04;77.00;;;35.75;;
55575;SDS011;41437;45.478;9.116;2023-02-15T16:16:07;72.97;;;33.03;;
55575;SDS011;41437;45.478;9.116;2023-02-15T16:19:15;61.47;;;31.23;;
55575;SDS011;41437;45.478;9.116;2023-02-15T16:22:25;66.28;;;32.13;;
55575;SDS011;41437;45.478;9.116;2023-02-15T16:25:36;66.40;;;31.00;;
55575;SDS011;41437;45.478;9.116;2023-02-15T16:28:50;66.38;;;30.65;;
55575;SDS011;41437;45.478;9.116;2023-02-15T16:31:58;66.95;;;32.00;;
55575;SDS011;41437;45.478;9.116;2023-02-15T16:35:01;72.70;;;33.88;;
55575;SDS011;41437;45.478;9.116;2023-02-15T16:41:10;73.88;;;31.83;;
55575;SDS011;41437;45.478;9.116;2023-02-15T16:44:16;77.32;;;34.47;;
55575;SDS011;41437;45.478;9.116;2023-02-15T16:47:21;69.97;;;32.83;;
55575;SDS011;41437;45.478;9.116;2023-02-15T16:50:26;71.85;;;32.90;;
55575;SDS011;41437;45.478;9.116;2023-02-15T16:53:34;71.68;;;33.08;;
55575;SDS011;41437;45.478;9.116;2023-02-15T16:56:37;70.15;;;33.65;;
55575;SDS011;41437;45.478;9.116;2023-02-15T16:59:46;69.43;;;32.78;;
55575;SDS011;41437;45.478;9.116;2023-02-15T17:02:53;76.15;;;37.85;;
55575;SDS011;41437;45.478;9.116;2023-02-15T17:05:59;75.47;;;36.72;;
55575;SDS011;41437;45.478;9.116;2023-02-15T17:12:08;68.18;;;32.30;;
55575;SDS011;41437;45.478;9.116;2023-02-15T17:15:29;69.60;;;32.65;;
55575;SDS011;41437;45.478;9.116;2023-02-15T17:18:33;69.80;;;32.60;;
55575;SDS011;41437;45.478;9.116;2023-02-15T17:21:40;75.47;;;32.83;;
55575;SDS011;41437;45.478;9.116;2023-02-15T17:27:53;77.05;;;34.45;;
55575;SDS011;41437;45.478;9.116;2023-02-15T17:30:57;77.45;;;33.40;;
55575;SDS011;41437;45.478;9.116;2023-02-15T17:34:00;76.38;;;32.75;;
55575;SDS011;41437;45.478;9.116;2023-02-15T17:37:09;76.35;;;33.92;;
55575;SDS011;41437;45.478;9.116;2023-02-15T17:40:21;71.75;;;33.60;;
55575;SDS011;41437;45.478;9.116;2023-02-15T17:43:24;76.15;;;33.25;;
55575;SDS011;41437;45.478;9.116;2023-02-15T17:46:26;75.80;;;32.65;;
55575;SDS011;41437;45.478;9.116;2023-02-15T17:49:34;73.40;;;32.80;;
55575;SDS011;41437;45.478;9.116;2023-02-15T17:52:37;72.25;;;32.08;;
55575;SDS011;41437;45.478;9.116;2023-02-15T17:55:39;71.90;;;34.92;;
55575;SDS011;41437;45.478;9.116;2023-02-15T18:01:44;73.30;;;33.55;;
55575;SDS011;41437;45.478;9.116;2023-02-15T18:05:07;69.82;;;34.03;;
55575;SDS011;41437;45.478;9.116;2023-02-15T18:11:50;68.20;;;32.00;;
55575;SDS011;41437;45.478;9.116;2023-02-15T18:14:52;66.70;;;31.15;;
55575;SDS011;41437;45.478;9.116;2023-02-15T18:17:54;67.75;;;28.70;;
55575;SDS011;41437;45.478;9.116;2023-02-15T18:20:56;66.15;;;30.23;;
55575;SDS011;41437;45.478;9.116;2023-02-15T18:23:58;60.63;;;28.15;;
55575;SDS011;41437;45.478;9.116;2023-02-15T18:27:00;67.70;;;30.17;;
55575;SDS011;41437;45.478;9.116;2023-02-15T18:30:02;60.38;;;29.98;;
55575;SDS011;41437;45.478;9.116;2023-02-15T18:33:05;74.77;;;32.83;;
55575;SDS011;41437;45.478;9.116;2023-02-15T18:36:07;70.05;;;32.35;;
55575;SDS011;41437;45.478;9.116;2023-02-15T18:39:24;66.00;;;31.23;;
55575;SDS011;41437;45.478;9.116;2023-02-15T18:42:32;67.25;;;30.55;;
55575;SDS011;41437;45.478;9.116;2023-02-15T18:45:35;58.60;;;28.98;;
55575;SDS011;41437;45.478;9.116;2023-02-15T18:48:38;63.83;;;29.20;;
55575;SDS011;41437;45.478;9.116;2023-02-15T18:51:39;64.03;;;31.10;;
55575;SDS011;41437;45.478;9.116;2023-02-15T18:54:42;61.03;;;30.88;;
55575;SDS011;41437;45.478;9.116;2023-02-15T18:57:48;62.00;;;30.85;;
55575;SDS011;41437;45.478;9.116;2023-02-15T19:00:52;67.90;;;32.60;;
55575;SDS011;41437;45.478;9.116;2023-02-15T19:03:53;63.20;;;31.95;;
55575;SDS011;41437;45.478;9.116;2023-02-15T19:06:55;70.30;;;35.53;;
55575;SDS011;41437;45.478;9.116;2023-02-15T19:09:57;80.25;;;39.78;;
55575;SDS011;41437;45.478;9.116;2023-02-15T19:13:02;95.07;;;47.03;;
55575;SDS011;41437;45.478;9.116;2023-02-15T19:16:12;95.45;;;48.30;;